sensor_id;sensor_type;location;lat;lon;timestamp;P1;durP1;ratioP1;P2;durP2;ratioP2
69573;SDS011;62840;52.366;5.980;2023-04-25T00:00:02;5.43;;;2.03;;
69573;SDS011;62840;52.366;5.980;2023-04-25T00:02:32;4.73;;;1.67;;
69573;SDS011;62840;52.366;5.980;2023-04-25T00:05:03;6.07;;;1.75;;
69573;SDS011;62840;52.366;5.980;2023-04-25T00:07:29;6.47;;;1.98;;
69573;SDS011;62840;52.366;5.980;2023-04-25T00:10:03;5.57;;;1.35;;
69573;SDS011;62840;52.366;5.980;2023-04-25T00:12:44;5.60;;;1.65;;
69573;SDS011;62840;52.366;5.980;2023-04-25T00:15:24;6.77;;;1.37;;
69573;SDS011;62840;52.366;5.980;2023-04-25T00:17:55;5.68;;;1.67;;
69573;SDS011;62840;52.366;5.980;2023-04-25T00:20:21;6.50;;;1.55;;
69573;SDS011;62840;52.366;5.980;2023-04-25T00:22:47;5.95;;;1.80;;
69573;SDS011;62840;52.366;5.980;2023-04-25T00:25:13;4.87;;;1.70;;
69573;SDS011;62840;52.366;5.980;2023-04-25T00:27:40;6.25;;;1.75;;
69573;SDS011;62840;52.366;5.980;2023-04-25T00:30:10;4.20;;;1.60;;
69573;SDS011;62840;52.366;5.980;2023-04-25T00:32:47;5.47;;;1.60;;
69573;SDS011;62840;52.366;5.980;2023-04-25T00:35:16;6.97;;;1.83;;
69573;SDS011;62840;52.366;5.980;2023-04-25T00:37:46;5.88;;;1.60;;
69573;SDS011;62840;52.366;5.980;2023-04-25T00:40:13;6.38;;;1.50;;
69573;SDS011;62840;52.366;5.980;2023-04-25T00:42:41;7.97;;;1.65;;
69573;SDS011;62840;52.366;5.980;2023-04-25T00:45:16;9.15;;;2.10;;
69573;SDS011;62840;52.366;5.980;2023-04-25T00:47:53;4.90;;;1.58;;
69573;SDS011;62840;52.366;5.980;2023-04-25T00:50:23;6.43;;;1.70;;
69573;SDS011;62840;52.366;5.980;2023-04-25T00:52:52;5.95;;;1.73;;
69573;SDS011;62840;52.366;5.980;2023-04-25T00:55:18;7.18;;;1.73;;
69573;SDS011;62840;52.366;5.980;2023-04-25T00:58:05;6.40;;;1.75;;
69573;SDS011;62840;52.366;5.980;2023-04-25T01:00:40;10.75;;;1.75;;
69573;SDS011;62840;52.366;5.980;2023-04-25T01:03:07;7.60;;;1.80;;
69573;SDS011;62840;52.366;5.980;2023-04-25T01:05:33;6.00;;;2.00;;
69573;SDS011;62840;52.366;5.980;2023-04-25T01:07:59;5.50;;;1.35;;
69573;SDS011;62840;52.366;5.980;2023-04-25T01:10:25;10.70;;;2.15;;
69573;SDS011;62840;52.366;5.980;2023-04-25T01:12:50;7.32;;;2.30;;
69573;SDS011;62840;52.366;5.980;2023-04-25T01:15:16;6.00;;;1.57;;
69573;SDS011;62840;52.366;5.980;2023-04-25T01:17:45;5.15;;;1.65;;
69573;SDS011;62840;52.366;5.980;2023-04-25T01:20:11;5.28;;;1.65;;
69573;SDS011;62840;52.366;5.980;2023-04-25T01:22:41;4.43;;;1.40;;
69573;SDS011;62840;52.366;5.980;2023-04-25T01:25:07;8.87;;;2.10;;
69573;SDS011;62840;52.366;5.980;2023-04-25T01:27:33;6.30;;;1.67;;
69573;SDS011;62840;52.366;5.980;2023-04-25T01:30:01;5.00;;;1.40;;
69573;SDS011;62840;52.366;5.980;2023-04-25T01:32:28;6.13;;;1.75;;
69573;SDS011;62840;52.366;5.980;2023-04-25T01:34:55;6.20;;;1.55;;
69573;SDS011;62840;52.366;5.980;2023-04-25T01:37:21;6.63;;;1.77;;
69573;SDS011;62840;52.366;5.980;2023-04-25T01:39:50;6.13;;;1.55;;
69573;SDS011;62840;52.366;5.980;2023-04-25T01:42:16;5.07;;;1.45;;
69573;SDS011;62840;52.366;5.980;2023-04-25T01:44:42;8.27;;;1.97;;
69573;SDS011;62840;52.366;5.980;2023-04-25T01:47:07;6.60;;;1.38;;
69573;SDS011;62840;52.366;5.980;2023-04-25T01:49:33;5.47;;;1.58;;
69573;SDS011;62840;52.366;5.980;2023-04-25T01:51:59;6.10;;;1.53;;
69573;SDS011;62840;52.366;5.980;2023-04-25T01:54:25;6.72;;;1.50;;
69573;SDS011;62840;52.366;5.980;2023-04-25T01:56:54;8.00;;;1.80;;
69573;SDS011;62840;52.366;5.980;2023-04-25T01:59:22;7.93;;;1.80;;
69573;SDS011;62840;52.366;5.980;2023-04-25T02:01:48;8.00;;;1.75;;
69573;SDS011;62840;52.366;5.980;2023-04-25T02:04:14;9.37;;;2.07;;
69573;SDS011;62840;52.366;5.980;2023-04-25T02:06:40;6.07;;;1.98;;
69573;SDS011;62840;52.366;5.980;2023-04-25T02:09:05;6.60;;;1.90;;
69573;SDS011;62840;52.366;5.980;2023-04-25T02:11:31;6.65;;;1.90;;
69573;SDS011;62840;52.366;5.980;2023-04-25T02:13:59;6.77;;;1.40;;
69573;SDS011;62840;52.366;5.980;2023-04-25T02:16:25;8.20;;;2.05;;
69573;SDS011;62840;52.366;5.980;2023-04-25T02:18:51;8.32;;;2.10;;
69573;SDS011;62840;52.366;5.980;2023-04-25T02:21:16;3.80;;;1.20;;
69573;SDS011;62840;52.366;5.980;2023-04-25T02:23:42;7.85;;;1.67;;
69573;SDS011;62840;52.366;5.980;2023-04-25T02:26:08;5.63;;;1.33;;
69573;SDS011;62840;52.366;5.980;2023-04-25T02:28:34;5.38;;;1.90;;
69573;SDS011;62840;52.366;5.980;2023-04-25T02:31:02;4.10;;;1.60;;
69573;SDS011;62840;52.366;5.980;2023-04-25T02:33:28;6.78;;;1.27;;
69573;SDS011;62840;52.366;5.980;2023-04-25T02:35:54;5.57;;;1.27;;
69573;SDS011;62840;52.366;5.980;2023-04-25T02:38:19;5.53;;;1.25;;
69573;SDS011;62840;52.366;5.980;2023-04-25T02:40:45;7.70;;;1.52;;
69573;SDS011;62840;52.366;5.980;2023-04-25T02:43:11;6.93;;;1.50;;
69573;SDS011;62840;52.366;5.980;2023-04-25T02:45:37;7.43;;;1.80;;
69573;SDS011;62840;52.366;5.980;2023-04-25T02:48:05;5.00;;;1.40;;
69573;SDS011;62840;52.366;5.980;2023-04-25T02:50:31;7.80;;;1.98;;
69573;SDS011;62840;52.366;5.980;2023-04-25T02:52:57;6.17;;;1.47;;
69573;SDS011;62840;52.366;5.980;2023-04-25T02:55:23;7.22;;;1.50;;
69573;SDS011;62840;52.366;5.980;2023-04-25T02:57:48;5.20;;;1.50;;
69573;SDS011;62840;52.366;5.980;2023-04-25T03:00:14;6.13;;;1.50;;
69573;SDS011;62840;52.366;5.980;2023-04-25T03:02:40;5.47;;;1.50;;
69573;SDS011;62840;52.366;5.980;2023-04-25T03:05:09;6.93;;;1.97;;
69573;SDS011;62840;52.366;5.980;2023-04-25T03:07:34;6.82;;;1.50;;
69573;SDS011;62840;52.366;5.980;2023-04-25T03:10:00;6.10;;;1.80;;
69573;SDS011;62840;52.366;5.980;2023-04-25T03:12:26;9.55;;;1.95;;
69573;SDS011;62840;52.366;5.980;2023-04-25T03:14:51;6.22;;;1.60;;
69573;SDS011;62840;52.366;5.980;2023-04-25T03:17:17;4.70;;;1.60;;
69573;SDS011;62840;52.366;5.980;2023-04-25T03:19:43;5.70;;;1.50;;
69573;SDS011;62840;52.366;5.980;2023-04-25T03:22:11;6.30;;;1.67;;
69573;SDS011;62840;52.366;5.980;2023-04-25T03:24:37;6.35;;;1.42;;
69573;SDS011;62840;52.366;5.980;2023-04-25T03:27:03;11.37;;;2.07;;
69573;SDS011;62840;52.366;5.980;2023-04-25T03:29:28;8.15;;;2.13;;
69573;SDS011;62840;52.366;5.980;2023-04-25T03:31:54;5.87;;;1.60;;
69573;SDS011;62840;52.366;5.980;2023-04-25T03:34:20;8.15;;;2.17;;
69573;SDS011;62840;52.366;5.980;2023-04-25T03:36:45;8.90;;;1.70;;
69573;SDS011;62840;52.366;5.980;2023-04-25T03:39:14;5.53;;;1.75;;
69573;SDS011;62840;52.366;5.980;2023-04-25T03:41:40;6.43;;;1.27;;
69573;SDS011;62840;52.366;5.980;2023-04-25T03:44:05;5.68;;;1.48;;
69573;SDS011;62840;52.366;5.980;2023-04-25T03:46:31;6.30;;;1.73;;
69573;SDS011;62840;52.366;5.980;2023-04-25T03:48:57;5.68;;;1.50;;
69573;SDS011;62840;52.366;5.980;2023-04-25T03:51:23;6.70;;;1.42;;
69573;SDS011;62840;52.366;5.980;2023-04-25T03:53:49;3.93;;;1.33;;
69573;SDS011;62840;52.366;5.980;2023-04-25T03:56:17;5.40;;;1.50;;
69573;SDS011;62840;52.366;5.980;2023-04-25T03:58:43;7.05;;;1.67;;
69573;SDS011;62840;52.366;5.980;2023-04-25T04:01:09;6.30;;;1.47;;
69573;SDS011;62840;52.366;5.980;2023-04-25T04:03:34;5.00;;;1.38;;
69573;SDS011;62840;52.366;5.980;2023-04-25T04:06:01;6.10;;;1.52;;
69573;SDS011;62840;52.366;5.980;2023-04-25T04:08:28;6.40;;;1.55;;
69573;SDS011;62840;52.366;5.980;2023-04-25T04:10:54;6.30;;;1.37;;
69573;SDS011;62840;52.366;5.980;2023-04-25T04:13:23;6.60;;;1.70;;
69573;SDS011;62840;52.366;5.980;2023-04-25T04:15:51;6.03;;;1.80;;
69573;SDS011;62840;52.366;5.980;2023-04-25T04:18:17;4.90;;;1.17;;
69573;SDS011;62840;52.366;5.980;2023-04-25T04:20:42;7.20;;;1.58;;
69573;SDS011;62840;52.366;5.980;2023-04-25T04:23:08;6.33;;;1.50;;
69573;SDS011;62840;52.366;5.980;2023-04-25T04:25:34;7.43;;;1.65;;
69573;SDS011;62840;52.366;5.980;2023-04-25T04:28:00;7.53;;;1.93;;
69573;SDS011;62840;52.366;5.980;2023-04-25T04:30:28;6.20;;;1.60;;
69573;SDS011;62840;52.366;5.980;2023-04-25T04:32:54;5.70;;;1.60;;
69573;SDS011;62840;52.366;5.980;2023-04-25T04:35:20;4.93;;;1.53;;
69573;SDS011;62840;52.366;5.980;2023-04-25T04:37:46;7.20;;;1.40;;
69573;SDS011;62840;52.366;5.980;2023-04-25T04:40:12;4.78;;;1.35;;
69573;SDS011;62840;52.366;5.980;2023-04-25T04:42:38;3.93;;;1.30;;
69573;SDS011;62840;52.366;5.980;2023-04-25T04:45:04;5.88;;;1.60;;
69573;SDS011;62840;52.366;5.980;2023-04-25T04:47:34;7.28;;;1.30;;
69573;SDS011;62840;52.366;5.980;2023-04-25T04:50:00;7.03;;;1.33;;
69573;SDS011;62840;52.366;5.980;2023-04-25T04:52:26;5.00;;;1.27;;
69573;SDS011;62840;52.366;5.980;2023-04-25T04:54:51;6.23;;;1.40;;
69573;SDS011;62840;52.366;5.980;2023-04-25T04:57:17;6.45;;;1.38;;
69573;SDS011;62840;52.366;5.980;2023-04-25T04:59:43;5.00;;;1.33;;
69573;SDS011;62840;52.366;5.980;2023-04-25T05:02:08;5.78;;;1.60;;
69573;SDS011;62840;52.366;5.980;2023-04-25T05:04:37;7.10;;;1.33;;
69573;SDS011;62840;52.366;5.980;2023-04-25T05:07:02;5.93;;;1.50;;
69573;SDS011;62840;52.366;5.980;2023-04-25T05:09:28;5.43;;;1.20;;
69573;SDS011;62840;52.366;5.980;2023-04-25T05:11:54;5.77;;;1.53;;
69573;SDS011;62840;52.366;5.980;2023-04-25T05:14:20;4.15;;;1.30;;
69573;SDS011;62840;52.366;5.980;2023-04-25T05:16:46;7.03;;;1.30;;
69573;SDS011;62840;52.366;5.980;2023-04-25T05:19:11;5.10;;;1.13;;
69573;SDS011;62840;52.366;5.980;2023-04-25T05:21:40;5.97;;;1.60;;
69573;SDS011;62840;52.366;5.980;2023-04-25T05:24:06;5.88;;;1.27;;
69573;SDS011;62840;52.366;5.980;2023-04-25T05:26:31;5.00;;;1.20;;
69573;SDS011;62840;52.366;5.980;2023-04-25T05:28:57;4.90;;;1.40;;
69573;SDS011;62840;52.366;5.980;2023-04-25T05:31:23;4.50;;;1.30;;
69573;SDS011;62840;52.366;5.980;2023-04-25T05:33:49;5.75;;;1.10;;
69573;SDS011;62840;52.366;5.980;2023-04-25T05:36:14;6.70;;;1.40;;
69573;SDS011;62840;52.366;5.980;2023-04-25T05:38:43;6.22;;;1.50;;
69573;SDS011;62840;52.366;5.980;2023-04-25T05:41:08;4.88;;;1.50;;
69573;SDS011;62840;52.366;5.980;2023-04-25T05:43:34;3.50;;;1.10;;
69573;SDS011;62840;52.366;5.980;2023-04-25T05:46:00;15.85;;;1.65;;
69573;SDS011;62840;52.366;5.980;2023-04-25T05:48:26;5.13;;;1.20;;
69573;SDS011;62840;52.366;5.980;2023-04-25T05:50:52;5.53;;;1.27;;
69573;SDS011;62840;52.366;5.980;2023-04-25T05:53:18;4.57;;;1.08;;
69573;SDS011;62840;52.366;5.980;2023-04-25T05:55:46;3.97;;;0.90;;
69573;SDS011;62840;52.366;5.980;2023-04-25T05:58:12;6.68;;;1.70;;
69573;SDS011;62840;52.366;5.980;2023-04-25T06:00:38;6.10;;;1.60;;
69573;SDS011;62840;52.366;5.980;2023-04-25T06:03:04;6.40;;;1.07;;
69573;SDS011;62840;52.366;5.980;2023-04-25T06:05:30;7.00;;;1.40;;
69573;SDS011;62840;52.366;5.980;2023-04-25T06:07:55;6.67;;;1.20;;
69573;SDS011;62840;52.366;5.980;2023-04-25T06:10:21;3.95;;;1.27;;
69573;SDS011;62840;52.366;5.980;2023-04-25T06:12:50;3.67;;;0.90;;
69573;SDS011;62840;52.366;5.980;2023-04-25T06:15:16;8.52;;;1.33;;
69573;SDS011;62840;52.366;5.980;2023-04-25T06:17:41;5.32;;;1.23;;
69573;SDS011;62840;52.366;5.980;2023-04-25T06:20:08;5.70;;;1.13;;
69573;SDS011;62840;52.366;5.980;2023-04-25T06:22:35;5.77;;;1.00;;
69573;SDS011;62840;52.366;5.980;2023-04-25T06:25:01;4.38;;;0.98;;
69573;SDS011;62840;52.366;5.980;2023-04-25T06:27:26;5.87;;;1.30;;
69573;SDS011;62840;52.366;5.980;2023-04-25T06:29:55;4.85;;;1.58;;
69573;SDS011;62840;52.366;5.980;2023-04-25T06:32:20;4.60;;;1.25;;
69573;SDS011;62840;52.366;5.980;2023-04-25T06:34:46;9.10;;;1.13;;
69573;SDS011;62840;52.366;5.980;2023-04-25T06:37:12;9.23;;;1.38;;
69573;SDS011;62840;52.366;5.980;2023-04-25T06:39:38;5.00;;;1.17;;
69573;SDS011;62840;52.366;5.980;2023-04-25T06:42:03;5.97;;;1.38;;
69573;SDS011;62840;52.366;5.980;2023-04-25T06:44:29;5.45;;;1.15;;
69573;SDS011;62840;52.366;5.980;2023-04-25T06:46:57;6.22;;;1.75;;
69573;SDS011;62840;52.366;5.980;2023-04-25T06:49:23;6.50;;;1.00;;
69573;SDS011;62840;52.366;5.980;2023-04-25T06:51:49;4.17;;;1.20;;
69573;SDS011;62840;52.366;5.980;2023-04-25T06:54:15;9.90;;;1.30;;
69573;SDS011;62840;52.366;5.980;2023-04-25T06:56:40;5.60;;;1.00;;
69573;SDS011;62840;52.366;5.980;2023-04-25T06:59:06;5.65;;;1.15;;
69573;SDS011;62840;52.366;5.980;2023-04-25T07:01:32;6.70;;;1.13;;
69573;SDS011;62840;52.366;5.980;2023-04-25T07:04:00;5.32;;;1.10;;
69573;SDS011;62840;52.366;5.980;2023-04-25T07:06:26;4.90;;;0.90;;
69573;SDS011;62840;52.366;5.980;2023-04-25T07:08:52;5.43;;;1.30;;
69573;SDS011;62840;52.366;5.980;2023-04-25T07:11:17;5.85;;;1.13;;
69573;SDS011;62840;52.366;5.980;2023-04-25T07:13:43;6.53;;;1.20;;
69573;SDS011;62840;52.366;5.980;2023-04-25T07:16:09;4.82;;;1.40;;
69573;SDS011;62840;52.366;5.980;2023-04-25T07:18:35;6.32;;;1.40;;
69573;SDS011;62840;52.366;5.980;2023-04-25T07:21:03;5.32;;;1.20;;
69573;SDS011;62840;52.366;5.980;2023-04-25T07:23:29;5.85;;;1.17;;
69573;SDS011;62840;52.366;5.980;2023-04-25T07:25:55;4.27;;;1.17;;
69573;SDS011;62840;52.366;5.980;2023-04-25T07:28:21;6.72;;;1.20;;
69573;SDS011;62840;52.366;5.980;2023-04-25T07:30:47;6.22;;;1.02;;
69573;SDS011;62840;52.366;5.980;2023-04-25T07:33:12;4.20;;;1.00;;
69573;SDS011;62840;52.366;5.980;2023-04-25T07:35:38;3.33;;;0.77;;
69573;SDS011;62840;52.366;5.980;2023-04-25T07:38:06;2.80;;;0.60;;
69573;SDS011;62840;52.366;5.980;2023-04-25T07:40:32;4.72;;;0.75;;
69573;SDS011;62840;52.366;5.980;2023-04-25T07:42:58;4.05;;;0.90;;
69573;SDS011;62840;52.366;5.980;2023-04-25T07:45:26;2.40;;;0.50;;
69573;SDS011;62840;52.366;5.980;2023-04-25T07:47:52;3.78;;;0.73;;
69573;SDS011;62840;52.366;5.980;2023-04-25T07:50:17;4.10;;;0.80;;
69573;SDS011;62840;52.366;5.980;2023-04-25T07:52:43;4.15;;;0.60;;
69573;SDS011;62840;52.366;5.980;2023-04-25T07:55:12;3.47;;;0.70;;
69573;SDS011;62840;52.366;5.980;2023-04-25T07:57:37;3.03;;;0.70;;
69573;SDS011;62840;52.366;5.980;2023-04-25T08:00:04;2.50;;;0.77;;
69573;SDS011;62840;52.366;5.980;2023-04-25T08:02:31;4.55;;;1.13;;
69573;SDS011;62840;52.366;5.980;2023-04-25T08:04:57;2.58;;;0.77;;
69573;SDS011;62840;52.366;5.980;2023-04-25T08:07:23;4.45;;;0.90;;
69573;SDS011;62840;52.366;5.980;2023-04-25T08:09:48;3.45;;;0.90;;
69573;SDS011;62840;52.366;5.980;2023-04-25T08:12:17;3.10;;;0.98;;
69573;SDS011;62840;52.366;5.980;2023-04-25T08:14:42;2.63;;;0.70;;
69573;SDS011;62840;52.366;5.980;2023-04-25T08:17:09;3.58;;;0.75;;
69573;SDS011;62840;52.366;5.980;2023-04-25T08:19:35;3.50;;;0.80;;
69573;SDS011;62840;52.366;5.980;2023-04-25T08:22:00;4.87;;;0.83;;
69573;SDS011;62840;52.366;5.980;2023-04-25T08:24:26;2.55;;;0.73;;
69573;SDS011;62840;52.366;5.980;2023-04-25T08:26:52;4.27;;;1.10;;
69573;SDS011;62840;52.366;5.980;2023-04-25T08:29:20;7.05;;;1.02;;
69573;SDS011;62840;52.366;5.980;2023-04-25T08:31:46;4.77;;;0.90;;
69573;SDS011;62840;52.366;5.980;2023-04-25T08:34:12;6.43;;;0.80;;
69573;SDS011;62840;52.366;5.980;2023-04-25T08:36:38;5.65;;;1.10;;
69573;SDS011;62840;52.366;5.980;2023-04-25T08:39:04;5.03;;;1.13;;
69573;SDS011;62840;52.366;5.980;2023-04-25T08:41:29;4.63;;;2.08;;
69573;SDS011;62840;52.366;5.980;2023-04-25T08:43:56;4.28;;;1.00;;
69573;SDS011;62840;52.366;5.980;2023-04-25T08:46:25;6.57;;;1.00;;
69573;SDS011;62840;52.366;5.980;2023-04-25T08:48:52;5.60;;;0.90;;
69573;SDS011;62840;52.366;5.980;2023-04-25T08:51:25;6.18;;;1.27;;
69573;SDS011;62840;52.366;5.980;2023-04-25T08:53:53;4.82;;;1.00;;
69573;SDS011;62840;52.366;5.980;2023-04-25T08:56:19;3.08;;;0.65;;
69573;SDS011;62840;52.366;5.980;2023-04-25T08:58:45;2.67;;;0.53;;
69573;SDS011;62840;52.366;5.980;2023-04-25T09:01:14;3.63;;;0.70;;
69573;SDS011;62840;52.366;5.980;2023-04-25T09:03:42;3.92;;;0.75;;
69573;SDS011;62840;52.366;5.980;2023-04-25T09:06:09;2.97;;;1.00;;
69573;SDS011;62840;52.366;5.980;2023-04-25T09:08:36;4.60;;;0.70;;
69573;SDS011;62840;52.366;5.980;2023-04-25T09:11:02;3.30;;;0.80;;
69573;SDS011;62840;52.366;5.980;2023-04-25T09:13:28;3.35;;;0.88;;
69573;SDS011;62840;52.366;5.980;2023-04-25T09:15:55;4.60;;;0.65;;
69573;SDS011;62840;52.366;5.980;2023-04-25T09:18:23;3.15;;;0.63;;
69573;SDS011;62840;52.366;5.980;2023-04-25T09:20:52;4.20;;;0.93;;
69573;SDS011;62840;52.366;5.980;2023-04-25T09:23:18;4.78;;;1.00;;
69573;SDS011;62840;52.366;5.980;2023-04-25T09:25:45;3.47;;;1.00;;
69573;SDS011;62840;52.366;5.980;2023-04-25T09:28:13;4.30;;;0.93;;
69573;SDS011;62840;52.366;5.980;2023-04-25T09:30:39;5.47;;;0.98;;
69573;SDS011;62840;52.366;5.980;2023-04-25T09:33:05;5.60;;;0.98;;
69573;SDS011;62840;52.366;5.980;2023-04-25T09:35:34;4.80;;;0.80;;
69573;SDS011;62840;52.366;5.980;2023-04-25T09:38:09;3.38;;;1.00;;
69573;SDS011;62840;52.366;5.980;2023-04-25T09:40:38;4.45;;;0.85;;
69573;SDS011;62840;52.366;5.980;2023-04-25T09:43:08;7.13;;;1.02;;
69573;SDS011;62840;52.366;5.980;2023-04-25T09:45:40;4.20;;;0.90;;
69573;SDS011;62840;52.366;5.980;2023-04-25T09:48:07;5.47;;;0.90;;
69573;SDS011;62840;52.366;5.980;2023-04-25T09:50:32;4.95;;;0.90;;
69573;SDS011;62840;52.366;5.980;2023-04-25T09:53:04;4.80;;;0.93;;
69573;SDS011;62840;52.366;5.980;2023-04-25T09:55:34;5.22;;;0.80;;
69573;SDS011;62840;52.366;5.980;2023-04-25T09:58:01;5.70;;;1.05;;
69573;SDS011;62840;52.366;5.980;2023-04-25T10:00:30;5.38;;;1.10;;
69573;SDS011;62840;52.366;5.980;2023-04-25T10:02:57;6.00;;;1.20;;
69573;SDS011;62840;52.366;5.980;2023-04-25T10:05:26;4.97;;;0.80;;
69573;SDS011;62840;52.366;5.980;2023-04-25T10:07:55;5.47;;;0.80;;
69573;SDS011;62840;52.366;5.980;2023-04-25T10:10:23;5.25;;;0.80;;
69573;SDS011;62840;52.366;5.980;2023-04-25T10:12:52;5.18;;;0.82;;
69573;SDS011;62840;52.366;5.980;2023-04-25T10:15:19;4.53;;;0.70;;
69573;SDS011;62840;52.366;5.980;2023-04-25T10:17:46;2.77;;;0.97;;
69573;SDS011;62840;52.366;5.980;2023-04-25T10:20:14;4.85;;;0.95;;
69573;SDS011;62840;52.366;5.980;2023-04-25T10:22:41;3.78;;;1.00;;
69573;SDS011;62840;52.366;5.980;2023-04-25T10:25:09;3.72;;;0.90;;
69573;SDS011;62840;52.366;5.980;2023-04-25T10:27:38;7.68;;;1.17;;
69573;SDS011;62840;52.366;5.980;2023-04-25T10:30:07;3.70;;;0.70;;
69573;SDS011;62840;52.366;5.980;2023-04-25T10:32:38;4.40;;;0.80;;
69573;SDS011;62840;52.366;5.980;2023-04-25T10:35:10;4.30;;;0.70;;
69573;SDS011;62840;52.366;5.980;2023-04-25T10:37:38;5.57;;;1.00;;
69573;SDS011;62840;52.366;5.980;2023-04-25T10:40:22;5.10;;;1.00;;
69573;SDS011;62840;52.366;5.980;2023-04-25T10:42:48;3.65;;;0.90;;
69573;SDS011;62840;52.366;5.980;2023-04-25T10:45:16;5.97;;;1.00;;
69573;SDS011;62840;52.366;5.980;2023-04-25T10:47:43;6.10;;;1.10;;
69573;SDS011;62840;52.366;5.980;2023-04-25T10:50:09;5.18;;;0.80;;
69573;SDS011;62840;52.366;5.980;2023-04-25T10:52:38;3.80;;;1.13;;
69573;SDS011;62840;52.366;5.980;2023-04-25T10:55:04;4.03;;;0.90;;
69573;SDS011;62840;52.366;5.980;2023-04-25T10:57:32;7.00;;;1.00;;
69573;SDS011;62840;52.366;5.980;2023-04-25T11:00:13;5.57;;;0.90;;
69573;SDS011;62840;52.366;5.980;2023-04-25T11:02:45;2.53;;;0.88;;
69573;SDS011;62840;52.366;5.980;2023-04-25T11:05:16;4.18;;;0.80;;
69573;SDS011;62840;52.366;5.980;2023-04-25T11:07:52;3.47;;;0.70;;
69573;SDS011;62840;52.366;5.980;2023-04-25T11:10:20;5.18;;;1.30;;
69573;SDS011;62840;52.366;5.980;2023-04-25T11:12:51;7.10;;;1.43;;
69573;SDS011;62840;52.366;5.980;2023-04-25T11:15:19;3.47;;;0.65;;
69573;SDS011;62840;52.366;5.980;2023-04-25T11:17:45;5.70;;;1.23;;
69573;SDS011;62840;52.366;5.980;2023-04-25T11:20:10;4.67;;;1.00;;
69573;SDS011;62840;52.366;5.980;2023-04-25T11:22:37;5.22;;;1.00;;
69573;SDS011;62840;52.366;5.980;2023-04-25T11:25:04;3.60;;;0.80;;
69573;SDS011;62840;52.366;5.980;2023-04-25T11:27:31;4.63;;;0.85;;
69573;SDS011;62840;52.366;5.980;2023-04-25T11:29:57;6.80;;;1.27;;
69573;SDS011;62840;52.366;5.980;2023-04-25T11:32:25;3.22;;;0.98;;
69573;SDS011;62840;52.366;5.980;2023-04-25T11:34:52;6.25;;;1.08;;
69573;SDS011;62840;52.366;5.980;2023-04-25T11:37:17;4.75;;;1.00;;
69573;SDS011;62840;52.366;5.980;2023-04-25T11:39:44;5.00;;;1.13;;
69573;SDS011;62840;52.366;5.980;2023-04-25T11:42:10;4.05;;;0.85;;
69573;SDS011;62840;52.366;5.980;2023-04-25T11:44:37;5.53;;;0.87;;
69573;SDS011;62840;52.366;5.980;2023-04-25T11:47:03;3.90;;;1.00;;
69573;SDS011;62840;52.366;5.980;2023-04-25T11:49:32;4.35;;;0.88;;
69573;SDS011;62840;52.366;5.980;2023-04-25T11:51:58;3.85;;;0.80;;
69573;SDS011;62840;52.366;5.980;2023-04-25T11:54:24;4.07;;;0.90;;
69573;SDS011;62840;52.366;5.980;2023-04-25T11:56:50;6.37;;;1.00;;
69573;SDS011;62840;52.366;5.980;2023-04-25T11:59:15;4.05;;;0.93;;
69573;SDS011;62840;52.366;5.980;2023-04-25T12:01:46;4.37;;;0.77;;
69573;SDS011;62840;52.366;5.980;2023-04-25T12:04:15;6.55;;;1.20;;
69573;SDS011;62840;52.366;5.980;2023-04-25T12:06:46;4.07;;;0.90;;
69573;SDS011;62840;52.366;5.980;2023-04-25T12:09:14;4.43;;;0.90;;
69573;SDS011;62840;52.366;5.980;2023-04-25T12:11:43;4.05;;;0.90;;
69573;SDS011;62840;52.366;5.980;2023-04-25T12:14:10;4.07;;;0.93;;
69573;SDS011;62840;52.366;5.980;2023-04-25T12:16:40;3.60;;;1.20;;
69573;SDS011;62840;52.366;5.980;2023-04-25T12:19:07;4.45;;;0.90;;
69573;SDS011;62840;52.366;5.980;2023-04-25T12:21:32;5.03;;;0.95;;
69573;SDS011;62840;52.366;5.980;2023-04-25T12:24:10;3.63;;;0.97;;
69573;SDS011;62840;52.366;5.980;2023-04-25T12:26:50;5.07;;;1.05;;
69573;SDS011;62840;52.366;5.980;2023-04-25T12:29:18;5.47;;;1.13;;
69573;SDS011;62840;52.366;5.980;2023-04-25T12:31:46;4.60;;;1.10;;
69573;SDS011;62840;52.366;5.980;2023-04-25T12:34:11;6.97;;;1.00;;
69573;SDS011;62840;52.366;5.980;2023-04-25T12:36:37;4.63;;;0.82;;
69573;SDS011;62840;52.366;5.980;2023-04-25T12:39:03;5.30;;;1.07;;
69573;SDS011;62840;52.366;5.980;2023-04-25T12:41:31;5.07;;;0.80;;
69573;SDS011;62840;52.366;5.980;2023-04-25T12:43:57;4.90;;;0.90;;
69573;SDS011;62840;52.366;5.980;2023-04-25T12:46:23;5.40;;;1.00;;
69573;SDS011;62840;52.366;5.980;2023-04-25T12:48:50;3.47;;;1.20;;
69573;SDS011;62840;52.366;5.980;2023-04-25T12:51:15;4.90;;;1.15;;
69573;SDS011;62840;52.366;5.980;2023-04-25T12:53:41;5.13;;;1.20;;
69573;SDS011;62840;52.366;5.980;2023-04-25T12:56:07;6.80;;;1.10;;
69573;SDS011;62840;52.366;5.980;2023-04-25T12:58:36;6.22;;;1.17;;
69573;SDS011;62840;52.366;5.980;2023-04-25T13:01:02;4.43;;;1.00;;
69573;SDS011;62840;52.366;5.980;2023-04-25T13:03:27;3.97;;;1.00;;
69573;SDS011;62840;52.366;5.980;2023-04-25T13:05:53;8.30;;;1.40;;
69573;SDS011;62840;52.366;5.980;2023-04-25T13:08:19;4.28;;;0.90;;
69573;SDS011;62840;52.366;5.980;2023-04-25T13:10:45;6.00;;;1.00;;
69573;SDS011;62840;52.366;5.980;2023-04-25T13:13:10;5.72;;;1.27;;
69573;SDS011;62840;52.366;5.980;2023-04-25T13:15:39;4.27;;;0.90;;
69573;SDS011;62840;52.366;5.980;2023-04-25T13:18:04;5.72;;;1.10;;
69573;SDS011;62840;52.366;5.980;2023-04-25T13:20:30;5.30;;;1.05;;
69573;SDS011;62840;52.366;5.980;2023-04-25T13:22:56;6.33;;;0.90;;
69573;SDS011;62840;52.366;5.980;2023-04-25T13:25:22;4.85;;;0.90;;
69573;SDS011;62840;52.366;5.980;2023-04-25T13:27:48;5.05;;;1.15;;
69573;SDS011;62840;52.366;5.980;2023-04-25T13:30:14;5.23;;;0.70;;
69573;SDS011;62840;52.366;5.980;2023-04-25T13:32:42;7.75;;;0.90;;
69573;SDS011;62840;52.366;5.980;2023-04-25T13:35:09;7.28;;;1.30;;
69573;SDS011;62840;52.366;5.980;2023-04-25T13:37:36;4.37;;;1.00;;
69573;SDS011;62840;52.366;5.980;2023-04-25T13:40:02;3.75;;;0.80;;
69573;SDS011;62840;52.366;5.980;2023-04-25T13:42:33;4.80;;;0.90;;
69573;SDS011;62840;52.366;5.980;2023-04-25T13:44:59;6.40;;;1.00;;
69573;SDS011;62840;52.366;5.980;2023-04-25T13:47:25;2.88;;;0.70;;
69573;SDS011;62840;52.366;5.980;2023-04-25T13:49:54;5.53;;;1.00;;
69573;SDS011;62840;52.366;5.980;2023-04-25T13:52:20;3.58;;;1.00;;
69573;SDS011;62840;52.366;5.980;2023-04-25T13:54:46;5.43;;;0.95;;
69573;SDS011;62840;52.366;5.980;2023-04-25T13:57:12;5.47;;;0.98;;
69573;SDS011;62840;52.366;5.980;2023-04-25T13:59:38;4.07;;;1.15;;
69573;SDS011;62840;52.366;5.980;2023-04-25T14:02:04;5.28;;;0.90;;
69573;SDS011;62840;52.366;5.980;2023-04-25T14:04:30;4.22;;;0.90;;
69573;SDS011;62840;52.366;5.980;2023-04-25T14:06:58;6.07;;;1.20;;
69573;SDS011;62840;52.366;5.980;2023-04-25T14:09:24;4.30;;;0.90;;
69573;SDS011;62840;52.366;5.980;2023-04-25T14:11:50;4.35;;;1.10;;
69573;SDS011;62840;52.366;5.980;2023-04-25T14:14:16;4.27;;;1.13;;
69573;SDS011;62840;52.366;5.980;2023-04-25T14:16:41;2.50;;;0.80;;
69573;SDS011;62840;52.366;5.980;2023-04-25T14:19:07;4.93;;;1.17;;
69573;SDS011;62840;52.366;5.980;2023-04-25T14:21:33;5.25;;;0.80;;
69573;SDS011;62840;52.366;5.980;2023-04-25T14:24:01;2.97;;;0.70;;
69573;SDS011;62840;52.366;5.980;2023-04-25T14:26:27;3.10;;;1.00;;
69573;SDS011;62840;52.366;5.980;2023-04-25T14:28:53;4.00;;;1.35;;
69573;SDS011;62840;52.366;5.980;2023-04-25T14:31:18;3.87;;;0.90;;
69573;SDS011;62840;52.366;5.980;2023-04-25T14:33:44;3.35;;;0.90;;
69573;SDS011;62840;52.366;5.980;2023-04-25T14:36:10;3.33;;;0.80;;
69573;SDS011;62840;52.366;5.980;2023-04-25T14:38:36;3.67;;;1.05;;
69573;SDS011;62840;52.366;5.980;2023-04-25T14:41:04;5.93;;;1.07;;
69573;SDS011;62840;52.366;5.980;2023-04-25T14:43:30;6.57;;;0.82;;
69573;SDS011;62840;52.366;5.980;2023-04-25T14:45:55;2.90;;;0.90;;